Kitchener, Canada
Current Conditions -  °F | °C
As of 6:00 PM on Thursday 20 Nov 2014 (Local Time) from CYKF Reporting Station
Light Snow Light Snow  
Wind Chill: -14°   Ceiling: 2800
Heat Index: -7°   Visibility: 9mi
Dew Point: -10°   Wind: 12mph
Humidity: 80%   Direction: 260°W
Pressure: 29.88"   Gusts: NA
Location:  43.45°N, 80.49°W
Report Text: CYKF 202300Z AUTO 26010KT 9SM -SN BKN028 BKN037 BKN047 M07/M10 A2988 RMK SLP137
Loading
Personal Weather Stations






























Interactive Weather Map New forecast layout! Learn more

10-Day Weather Forecast

Advertisements
Track Severe Weather on mobile